Time;durP1;ratioP1;P1;durP2;ratioP2;P2;SDS_P1;SDS_P2;PMS_P1;PMS_P2;Temp;Humidity;BMP_temperature;BMP_pressure;BME280_temperature;BME280_humidity;BME280_pressure;Samples;Min_cycle;Max_cycle;Signal;HPM_P1;HPM_P2
2024/01/06 00:00:34;;;;;;;9.85;6.85;;;;;;;;;;5059465;28;20419;-71
2024/01/06 00:02:59;;;;;;;9.75;6.85;;;;;;;;;;5067200;28;20036;-72
2024/01/06 00:05:24;;;;;;;9.90;6.85;;;;;;;;;;5065463;28;20055;-71
2024/01/06 00:07:50;;;;;;;10.85;6.75;;;;;;;;;;5055772;28;20037;-71
2024/01/06 00:10:15;;;;;;;9.68;6.80;;;;;;;;;;5065687;28;20033;-71
2024/01/06 00:12:40;;;;;;;10.23;6.65;;;;;;;;;;5055858;28;20495;-71
2024/01/06 00:15:06;;;;;;;8.93;6.53;;;;;;;;;;5059380;28;20036;-71
2024/01/06 00:17:31;;;;;;;9.85;6.93;;;;;;;;;;5050522;28;20126;-71
2024/01/06 00:19:57;;;;;;;10.07;6.50;;;;;;;;;;5059820;28;20037;-71
2024/01/06 00:22:22;;;;;;;11.05;7.10;;;;;;;;;;5065400;28;20045;-71
2024/01/06 00:24:48;;;;;;;10.65;6.93;;;;;;;;;;5051167;28;20459;-72
2024/01/06 00:27:13;;;;;;;10.63;6.88;;;;;;;;;;5055383;28;20052;-70
2024/01/06 00:29:38;;;;;;;9.82;6.20;;;;;;;;;;5056860;28;20751;-71
2024/01/06 00:32:04;;;;;;;10.23;6.22;;;;;;;;;;5065774;28;20123;-71
2024/01/06 00:34:29;;;;;;;9.68;6.82;;;;;;;;;;5067603;28;20063;-71
2024/01/06 00:36:55;;;;;;;8.80;6.55;;;;;;;;;;5051783;28;20028;-72
2024/01/06 00:39:20;;;;;;;10.27;6.53;;;;;;;;;;5051155;28;20049;-71
2024/01/06 00:41:46;;;;;;;9.80;6.78;;;;;;;;;;5064832;28;20029;-71
2024/01/06 00:44:11;;;;;;;9.05;6.32;;;;;;;;;;5070056;28;20051;-72
2024/01/06 00:46:36;;;;;;;10.38;6.75;;;;;;;;;;5060828;28;20029;-72
2024/01/06 00:49:02;;;;;;;9.27;6.35;;;;;;;;;;5060903;28;20035;-71
2024/01/06 00:51:27;;;;;;;10.68;7.00;;;;;;;;;;5065976;28;20034;-71
2024/01/06 00:53:53;;;;;;;9.15;6.80;;;;;;;;;;5047020;28;20040;-71
2024/01/06 00:56:18;;;;;;;9.13;6.43;;;;;;;;;;5066237;28;20106;-71
2024/01/06 00:58:43;;;;;;;8.52;6.50;;;;;;;;;;5061601;28;20041;-71
2024/01/06 01:01:09;;;;;;;8.65;6.43;;;;;;;;;;5065079;28;20045;-71
2024/01/06 01:03:34;;;;;;;9.45;6.65;;;;;;;;;;5062708;28;20586;-71
2024/01/06 01:05:59;;;;;;;9.50;6.32;;;;;;;;;;5067736;28;20047;-71
2024/01/06 01:08:25;;;;;;;9.40;6.60;;;;;;;;;;5056939;28;20033;-71
2024/01/06 01:10:50;;;;;;;9.13;6.53;;;;;;;;;;5070226;28;20068;-71
2024/01/06 01:13:15;;;;;;;10.18;6.72;;;;;;;;;;5058341;28;20507;-71
2024/01/06 01:15:41;;;;;;;9.98;6.32;;;;;;;;;;5069277;28;20032;-71
2024/01/06 01:18:06;;;;;;;9.23;6.50;;;;;;;;;;5068548;28;20067;-72
2024/01/06 01:20:31;;;;;;;9.05;6.18;;;;;;;;;;5053697;28;20401;-71
2024/01/06 01:22:57;;;;;;;9.35;6.35;;;;;;;;;;5059218;28;20036;-71
2024/01/06 01:25:22;;;;;;;11.90;7.45;;;;;;;;;;5049425;28;20583;-71
2024/01/06 01:27:47;;;;;;;9.55;6.53;;;;;;;;;;5053689;28;20029;-71
2024/01/06 01:30:14;;;;;;;7.97;5.88;;;;;;;;;;5054292;28;20037;-72
2024/01/06 01:32:39;;;;;;;10.05;6.82;;;;;;;;;;5066184;28;20062;-72
2024/01/06 01:35:04;;;;;;;7.25;6.13;;;;;;;;;;5058791;28;20036;-72
2024/01/06 01:37:30;;;;;;;9.05;6.45;;;;;;;;;;5054782;28;20041;-71
2024/01/06 01:39:56;;;;;;;9.98;6.47;;;;;;;;;;5042902;28;20512;-72
2024/01/06 01:42:21;;;;;;;9.05;6.10;;;;;;;;;;5041160;28;20033;-71
2024/01/06 01:44:46;;;;;;;10.18;6.25;;;;;;;;;;5045554;28;20079;-71
2024/01/06 01:47:12;;;;;;;8.63;6.28;;;;;;;;;;5040718;28;20060;-71
2024/01/06 01:49:37;;;;;;;9.50;6.72;;;;;;;;;;5053576;28;20030;-71
2024/01/06 01:52:02;;;;;;;9.65;6.25;;;;;;;;;;5059555;28;20064;-72
2024/01/06 01:54:28;;;;;;;9.38;6.22;;;;;;;;;;5059701;28;20040;-71
2024/01/06 01:56:53;;;;;;;9.88;6.50;;;;;;;;;;5057270;28;20037;-71
2024/01/06 01:59:20;;;;;;;8.55;6.13;;;;;;;;;;5045853;28;20790;-71
2024/01/06 02:01:45;;;;;;;9.10;6.57;;;;;;;;;;5048474;28;20110;-71
2024/01/06 02:04:10;;;;;;;8.95;6.50;;;;;;;;;;5065845;28;20044;-71
2024/01/06 02:06:36;;;;;;;9.60;6.32;;;;;;;;;;5063437;28;20035;-71
2024/01/06 02:09:01;;;;;;;8.82;6.38;;;;;;;;;;5046119;28;20033;-72
2024/01/06 02:11:27;;;;;;;9.75;6.45;;;;;;;;;;5053050;28;20071;-71
2024/01/06 02:13:52;;;;;;;8.98;6.63;;;;;;;;;;5068198;28;20036;-71
2024/01/06 02:16:17;;;;;;;8.45;6.18;;;;;;;;;;5047937;28;20091;-72
2024/01/06 02:18:43;;;;;;;9.32;6.82;;;;;;;;;;5040046;28;20657;-71
2024/01/06 02:21:08;;;;;;;9.25;6.97;;;;;;;;;;5054768;28;20067;-71
2024/01/06 02:23:34;;;;;;;9.90;6.65;;;;;;;;;;5060298;28;20041;-72
2024/01/06 02:25:59;;;;;;;7.95;6.50;;;;;;;;;;5048459;28;20075;-73
2024/01/06 02:28:25;;;;;;;10.20;6.53;;;;;;;;;;5052271;28;20029;-71
2024/01/06 02:30:50;;;;;;;9.20;6.35;;;;;;;;;;5048957;28;20397;-71
2024/01/06 02:33:15;;;;;;;9.25;6.90;;;;;;;;;;5057447;28;20040;-73
2024/01/06 02:35:41;;;;;;;9.90;6.65;;;;;;;;;;5067175;28;20415;-72
2024/01/06 02:38:06;;;;;;;9.68;6.82;;;;;;;;;;5050733;28;20040;-72
2024/01/06 02:40:32;;;;;;;9.40;6.63;;;;;;;;;;5046367;28;20424;-72
2024/01/06 02:42:58;;;;;;;9.25;6.45;;;;;;;;;;5050777;28;20021;-71
2024/01/06 02:45:23;;;;;;;9.38;6.75;;;;;;;;;;5058091;28;20044;-71
2024/01/06 02:47:48;;;;;;;10.00;6.95;;;;;;;;;;5052341;28;20031;-71
2024/01/06 02:50:14;;;;;;;9.73;6.35;;;;;;;;;;5057182;28;20504;-71
2024/01/06 02:52:39;;;;;;;10.02;6.60;;;;;;;;;;5062286;28;20036;-71
2024/01/06 02:55:04;;;;;;;9.95;7.00;;;;;;;;;;5074727;28;20191;-73
2024/01/06 02:57:30;;;;;;;10.00;6.63;;;;;;;;;;5030589;28;20033;-71
2024/01/06 02:59:55;;;;;;;9.60;6.53;;;;;;;;;;5032590;28;20102;-72
2024/01/06 03:02:20;;;;;;;8.88;6.55;;;;;;;;;;5057198;28;20033;-72
2024/01/06 03:04:46;;;;;;;10.32;6.88;;;;;;;;;;5061309;28;20041;-72
2024/01/06 03:07:11;;;;;;;9.65;6.88;;;;;;;;;;5048040;28;20033;-72
2024/01/06 03:09:38;;;;;;;9.60;6.57;;;;;;;;;;5030934;28;20451;-72
2024/01/06 03:12:05;;;;;;;9.27;6.65;;;;;;;;;;5062931;28;20029;-72
2024/01/06 03:14:30;;;;;;;9.73;7.20;;;;;;;;;;5035729;28;20040;-71
2024/01/06 03:16:57;;;;;;;8.90;6.18;;;;;;;;;;5046593;28;20615;-71
2024/01/06 03:19:25;;;;;;;9.77;6.55;;;;;;;;;;5031453;28;20046;-71
2024/01/06 03:21:51;;;;;;;9.00;6.43;;;;;;;;;;5052910;28;20048;-71
2024/01/06 03:24:16;;;;;;;8.40;6.57;;;;;;;;;;5055199;28;20041;-71
2024/01/06 03:26:42;;;;;;;11.00;7.25;;;;;;;;;;5043327;28;20032;-71
2024/01/06 03:29:07;;;;;;;9.73;6.70;;;;;;;;;;5055791;28;20049;-72
2024/01/06 03:31:32;;;;;;;9.18;6.65;;;;;;;;;;5063187;28;20534;-72
2024/01/06 03:33:58;;;;;;;9.82;6.50;;;;;;;;;;5049041;28;20033;-72
2024/01/06 03:36:23;;;;;;;8.70;6.80;;;;;;;;;;5059676;28;20048;-71
2024/01/06 03:38:48;;;;;;;10.27;6.82;;;;;;;;;;5072836;28;20037;-72
2024/01/06 03:41:13;;;;;;;10.00;6.70;;;;;;;;;;5063828;28;20048;-72
2024/01/06 03:43:39;;;;;;;9.60;6.50;;;;;;;;;;5076618;28;20037;-71
2024/01/06 03:46:05;;;;;;;10.07;7.15;;;;;;;;;;5076496;28;20040;-72
2024/01/06 03:48:31;;;;;;;9.73;6.90;;;;;;;;;;5044599;28;20527;-71
2024/01/06 03:50:57;;;;;;;9.23;6.70;;;;;;;;;;5056136;28;20048;-72
2024/01/06 03:53:22;;;;;;;10.55;7.22;;;;;;;;;;5050748;28;20114;-71
2024/01/06 03:55:47;;;;;;;10.23;6.82;;;;;;;;;;5051970;28;20095;-72
2024/01/06 03:58:12;;;;;;;9.27;6.78;;;;;;;;;;5063073;28;20033;-72
2024/01/06 04:00:38;;;;;;;9.70;7.32;;;;;;;;;;5051676;28;20048;-72
2024/01/06 04:03:04;;;;;;;10.00;6.95;;;;;;;;;;5069920;28;20036;-72
2024/01/06 04:05:29;;;;;;;10.07;7.30;;;;;;;;;;5072633;28;20041;-72
2024/01/06 04:07:55;;;;;;;9.90;6.50;;;;;;;;;;5051535;28;20569;-72
2024/01/06 04:10:20;;;;;;;9.07;6.72;;;;;;;;;;5051489;28;20069;-72
2024/01/06 04:12:45;;;;;;;10.00;7.28;;;;;;;;;;5071289;28;20488;-72
2024/01/06 04:15:11;;;;;;;9.93;7.20;;;;;;;;;;5068668;28;20067;-72
2024/01/06 04:17:36;;;;;;;9.95;6.93;;;;;;;;;;5068442;28;20666;-72
2024/01/06 04:20:01;;;;;;;9.65;6.97;;;;;;;;;;5051393;28;20512;-71
2024/01/06 04:22:27;;;;;;;10.32;6.80;;;;;;;;;;5052115;28;20043;-73
2024/01/06 04:24:52;;;;;;;8.55;6.57;;;;;;;;;;5065318;28;20041;-72
2024/01/06 04:27:18;;;;;;;9.15;6.65;;;;;;;;;;5059383;28;20102;-71
2024/01/06 04:29:43;;;;;;;9.90;6.90;;;;;;;;;;5040878;28;20121;-73
2024/01/06 04:32:08;;;;;;;9.98;7.03;;;;;;;;;;5048193;28;20060;-71
2024/01/06 04:34:34;;;;;;;10.48;7.00;;;;;;;;;;5071554;28;20043;-71
2024/01/06 04:36:59;;;;;;;9.70;7.07;;;;;;;;;;5045688;28;20143;-72
2024/01/06 04:39:24;;;;;;;10.25;6.80;;;;;;;;;;5030397;28;20041;-71
2024/01/06 04:41:50;;;;;;;9.90;7.13;;;;;;;;;;5050216;28;20037;-72
2024/01/06 04:44:15;;;;;;;10.65;7.07;;;;;;;;;;5056445;28;20090;-72
2024/01/06 04:46:41;;;;;;;8.80;6.55;;;;;;;;;;5054739;28;20060;-71
2024/01/06 04:49:06;;;;;;;11.52;7.68;;;;;;;;;;5063344;28;20033;-72
2024/01/06 04:51:31;;;;;;;9.50;7.05;;;;;;;;;;5055182;28;20590;-71
2024/01/06 04:53:58;;;;;;;9.23;6.63;;;;;;;;;;5054988;28;20040;-72
2024/01/06 04:56:23;;;;;;;9.32;6.82;;;;;;;;;;5057550;28;20850;-71
2024/01/06 04:58:48;;;;;;;9.55;6.40;;;;;;;;;;5063249;28;20086;-72
2024/01/06 05:01:13;;;;;;;9.02;6.63;;;;;;;;;;5048474;28;20037;-72
2024/01/06 05:03:39;;;;;;;9.45;6.90;;;;;;;;;;5047579;28;20565;-71
2024/01/06 05:06:04;;;;;;;10.35;7.18;;;;;;;;;;5051136;28;20453;-71
2024/01/06 05:08:32;;;;;;;9.02;6.78;;;;;;;;;;5054908;28;20037;-71
2024/01/06 05:10:57;;;;;;;8.93;6.40;;;;;;;;;;5052907;28;20041;-71
2024/01/06 05:13:23;;;;;;;10.02;6.78;;;;;;;;;;5060934;28;20047;-72
2024/01/06 05:15:48;;;;;;;8.57;6.22;;;;;;;;;;5054560;28;20113;-72
2024/01/06 05:18:13;;;;;;;10.80;6.95;;;;;;;;;;5071644;28;20037;-72
2024/01/06 05:20:40;;;;;;;9.70;6.75;;;;;;;;;;5054028;28;20523;-72
2024/01/06 05:23:06;;;;;;;9.43;6.47;;;;;;;;;;5039388;28;20029;-71
2024/01/06 05:25:31;;;;;;;8.48;6.35;;;;;;;;;;5045050;28;20132;-71
2024/01/06 05:27:56;;;;;;;8.65;6.53;;;;;;;;;;5059097;28;20525;-72
2024/01/06 05:30:22;;;;;;;8.82;6.13;;;;;;;;;;5063578;28;20044;-71
2024/01/06 05:32:48;;;;;;;10.98;6.72;;;;;;;;;;5055412;28;20024;-71
2024/01/06 05:35:13;;;;;;;8.70;6.43;;;;;;;;;;5060091;28;20570;-72
2024/01/06 05:37:39;;;;;;;9.55;6.43;;;;;;;;;;5056046;28;20116;-71
2024/01/06 05:40:05;;;;;;;8.80;6.30;;;;;;;;;;5062368;28;20105;-71
2024/01/06 05:42:30;;;;;;;9.20;6.80;;;;;;;;;;5049361;28;20032;-71
2024/01/06 05:44:56;;;;;;;9.63;6.78;;;;;;;;;;5085052;28;20065;-72
2024/01/06 05:47:22;;;;;;;8.25;6.32;;;;;;;;;;5059838;28;20021;-72
2024/01/06 05:49:48;;;;;;;9.38;6.00;;;;;;;;;;5058944;28;20147;-72
2024/01/06 05:52:14;;;;;;;8.80;6.20;;;;;;;;;;5048940;28;20420;-72
2024/01/06 05:54:41;;;;;;;8.40;6.60;;;;;;;;;;5053262;28;20041;-71
2024/01/06 05:57:06;;;;;;;8.95;6.55;;;;;;;;;;5054411;28;20036;-72
2024/01/06 05:59:34;;;;;;;8.00;6.07;;;;;;;;;;5051992;28;20512;-71
2024/01/06 06:02:00;;;;;;;8.38;6.63;;;;;;;;;;5048514;28;20045;-71
2024/01/06 06:04:25;;;;;;;8.73;6.32;;;;;;;;;;5051043;28;20037;-78
2024/01/06 06:06:50;;;;;;;7.95;6.10;;;;;;;;;;5056280;28;20056;-71
2024/01/06 06:09:16;;;;;;;8.98;6.07;;;;;;;;;;5057704;28;20043;-73
2024/01/06 06:11:41;;;;;;;7.38;6.25;;;;;;;;;;5045439;28;20041;-72
2024/01/06 06:14:07;;;;;;;7.78;5.70;;;;;;;;;;5049961;28;20071;-73
2024/01/06 06:16:32;;;;;;;9.30;6.72;;;;;;;;;;5058073;28;20033;-73
2024/01/06 06:18:58;;;;;;;8.00;5.95;;;;;;;;;;5050650;28;20032;-73
2024/01/06 06:21:23;;;;;;;8.73;6.30;;;;;;;;;;5047758;28;20046;-73
2024/01/06 06:23:49;;;;;;;9.05;6.47;;;;;;;;;;5047513;28;20456;-75
2024/01/06 06:26:14;;;;;;;9.80;6.70;;;;;;;;;;5031995;28;20065;-72
2024/01/06 06:28:39;;;;;;;7.68;5.68;;;;;;;;;;5044218;28;20033;-73
2024/01/06 06:31:05;;;;;;;7.82;5.60;;;;;;;;;;5038705;28;20040;-71
2024/01/06 06:33:30;;;;;;;8.48;6.15;;;;;;;;;;5034220;28;20037;-71
2024/01/06 06:35:55;;;;;;;8.80;5.80;;;;;;;;;;5040908;28;20037;-70
2024/01/06 06:38:24;;;;;;;8.15;6.05;;;;;;;;;;5039068;28;20063;-70
2024/01/06 06:40:49;;;;;;;8.18;5.60;;;;;;;;;;5043454;28;20044;-71
2024/01/06 06:43:14;;;;;;;8.05;5.20;;;;;;;;;;5045570;28;20029;-71
2024/01/06 06:45:40;;;;;;;6.78;5.05;;;;;;;;;;5046522;28;20041;-70
2024/01/06 06:48:06;;;;;;;7.78;5.40;;;;;;;;;;5046150;28;20127;-69
2024/01/06 06:50:32;;;;;;;8.60;6.00;;;;;;;;;;5039828;28;20037;-73
2024/01/06 06:52:57;;;;;;;8.07;5.45;;;;;;;;;;5041244;28;20576;-70
2024/01/06 06:55:22;;;;;;;7.80;5.97;;;;;;;;;;5046501;28;20032;-71
2024/01/06 06:57:47;;;;;;;8.20;5.45;;;;;;;;;;5042730;28;20674;-69
2024/01/06 07:00:13;;;;;;;7.03;4.75;;;;;;;;;;5040670;28;20049;-69
2024/01/06 07:02:38;;;;;;;6.72;5.10;;;;;;;;;;5044265;28;20061;-70
2024/01/06 07:05:06;;;;;;;8.05;5.70;;;;;;;;;;5044106;28;20219;-70
2024/01/06 07:07:32;;;;;;;7.75;5.22;;;;;;;;;;5038872;28;20034;-70
2024/01/06 07:09:57;;;;;;;6.88;5.28;;;;;;;;;;5041949;28;20033;-69
2024/01/06 07:12:23;;;;;;;7.93;5.55;;;;;;;;;;5038103;28;22344;-70
2024/01/06 07:14:48;;;;;;;9.40;5.82;;;;;;;;;;5039122;28;20101;-70
2024/01/06 07:17:13;;;;;;;6.68;5.15;;;;;;;;;;5049922;28;20488;-70
2024/01/06 07:19:39;;;;;;;7.50;5.57;;;;;;;;;;5037359;28;20586;-70
2024/01/06 07:22:05;;;;;;;7.10;4.80;;;;;;;;;;5038961;28;20130;-71
2024/01/06 07:24:30;;;;;;;7.57;5.00;;;;;;;;;;5049037;28;20037;-70
2024/01/06 07:26:55;;;;;;;7.45;4.45;;;;;;;;;;5065326;28;20037;-71
2024/01/06 07:29:21;;;;;;;6.25;4.70;;;;;;;;;;5056420;28;20025;-72
2024/01/06 07:31:47;;;;;;;7.78;5.13;;;;;;;;;;5057070;28;20041;-70
2024/01/06 07:34:12;;;;;;;6.40;4.95;;;;;;;;;;5047288;28;20590;-71
2024/01/06 07:36:38;;;;;;;7.38;4.90;;;;;;;;;;5045187;28;20106;-71
2024/01/06 07:39:04;;;;;;;6.75;5.18;;;;;;;;;;5049994;28;20017;-71
2024/01/06 07:41:31;;;;;;;5.72;4.68;;;;;;;;;;5048415;28;20013;-72
2024/01/06 07:43:57;;;;;;;6.75;4.75;;;;;;;;;;5047273;28;20077;-71
2024/01/06 07:46:22;;;;;;;5.45;4.35;;;;;;;;;;5042593;28;20147;-72
2024/01/06 07:48:47;;;;;;;6.00;4.80;;;;;;;;;;5042544;28;20104;-71
2024/01/06 07:51:13;;;;;;;6.65;4.68;;;;;;;;;;5041619;28;20187;-72
2024/01/06 07:53:38;;;;;;;6.78;4.20;;;;;;;;;;5042902;28;20492;-70
2024/01/06 07:56:03;;;;;;;6.47;4.70;;;;;;;;;;5048627;28;20005;-70
2024/01/06 07:58:29;;;;;;;5.38;4.53;;;;;;;;;;5044681;28;20033;-71
2024/01/06 08:00:55;;;;;;;8.15;4.75;;;;;;;;;;5041139;28;20028;-71
2024/01/06 08:03:21;;;;;;;6.20;4.40;;;;;;;;;;5049787;28;20021;-71
2024/01/06 08:05:47;;;;;;;6.63;4.85;;;;;;;;;;5051453;28;20079;-70
2024/01/06 08:08:16;;;;;;;5.90;4.40;;;;;;;;;;5048794;28;20041;-70
2024/01/06 08:10:41;;;;;;;5.95;3.72;;;;;;;;;;5044099;28;20009;-71
2024/01/06 08:13:07;;;;;;;8.20;5.00;;;;;;;;;;5042981;28;20504;-71
2024/01/06 08:15:34;;;;;;;7.90;4.63;;;;;;;;;;5037829;28;20024;-70
2024/01/06 08:17:59;;;;;;;7.30;4.72;;;;;;;;;;5040813;28;20120;-70
2024/01/06 08:20:25;;;;;;;5.75;4.47;;;;;;;;;;5049121;28;20112;-70
2024/01/06 08:22:50;;;;;;;5.30;4.35;;;;;;;;;;5039689;28;20028;-70
2024/01/06 08:25:17;;;;;;;7.57;4.60;;;;;;;;;;5045798;28;20107;-71
2024/01/06 08:27:42;;;;;;;6.05;4.68;;;;;;;;;;5041095;28;20122;-70
2024/01/06 08:30:08;;;;;;;5.63;4.05;;;;;;;;;;5048092;28;20041;-70
2024/01/06 08:32:33;;;;;;;6.22;4.38;;;;;;;;;;5051210;28;20037;-70
2024/01/06 08:34:59;;;;;;;6.43;4.18;;;;;;;;;;5043063;28;20033;-71
2024/01/06 08:37:24;;;;;;;6.82;4.70;;;;;;;;;;5042121;28;20032;-70
2024/01/06 08:39:49;;;;;;;5.68;4.10;;;;;;;;;;5042042;28;20111;-71
2024/01/06 08:42:15;;;;;;;5.85;4.55;;;;;;;;;;5053142;28;20148;-71
2024/01/06 08:44:40;;;;;;;6.75;4.82;;;;;;;;;;5046389;28;20033;-72
2024/01/06 08:47:05;;;;;;;5.28;4.38;;;;;;;;;;5042191;28;20131;-70
2024/01/06 08:49:31;;;;;;;5.85;4.28;;;;;;;;;;5045437;28;20049;-71
2024/01/06 08:51:56;;;;;;;6.00;4.10;;;;;;;;;;5039440;28;20032;-71
2024/01/06 08:54:22;;;;;;;5.57;4.28;;;;;;;;;;5028855;28;20044;-71
2024/01/06 08:56:47;;;;;;;5.15;4.10;;;;;;;;;;5045217;28;20048;-71
2024/01/06 08:59:12;;;;;;;6.88;4.50;;;;;;;;;;5056634;28;20429;-70
2024/01/06 09:01:38;;;;;;;7.18;4.57;;;;;;;;;;5058350;28;20370;-71
2024/01/06 09:04:04;;;;;;;4.95;3.80;;;;;;;;;;5064431;28;20122;-70
2024/01/06 09:06:29;;;;;;;5.20;4.13;;;;;;;;;;5059590;28;20048;-70
2024/01/06 09:08:54;;;;;;;8.90;4.30;;;;;;;;;;5059952;28;20055;-70
2024/01/06 09:11:20;;;;;;;6.13;3.83;;;;;;;;;;5080208;28;20122;-70
2024/01/06 09:13:45;;;;;;;5.82;4.10;;;;;;;;;;5067651;28;20515;-70
2024/01/06 09:16:10;;;;;;;5.90;4.18;;;;;;;;;;5067160;28;20101;-70
2024/01/06 09:18:37;;;;;;;5.75;4.30;;;;;;;;;;5052394;28;20051;-70
2024/01/06 09:21:03;;;;;;;6.00;4.13;;;;;;;;;;5053149;28;20546;-70
2024/01/06 09:23:34;;;;;;;5.82;3.90;;;;;;;;;;5051804;28;20055;-70
2024/01/06 09:26:00;;;;;;;5.35;4.25;;;;;;;;;;5057696;28;20068;-70
2024/01/06 09:28:26;;;;;;;5.18;4.05;;;;;;;;;;5057033;28;20175;-71
2024/01/06 09:30:52;;;;;;;5.78;3.92;;;;;;;;;;5049121;28;20147;-71
2024/01/06 09:33:17;;;;;;;5.97;3.80;;;;;;;;;;5037826;28;20120;-71
2024/01/06 09:35:44;;;;;;;6.90;4.63;;;;;;;;;;5037818;28;20591;-70
2024/01/06 09:38:09;;;;;;;5.57;4.20;;;;;;;;;;5053459;28;20049;-70
2024/01/06 09:40:35;;;;;;;6.88;4.55;;;;;;;;;;5056412;28;20105;-68
2024/01/06 09:43:00;;;;;;;6.10;4.20;;;;;;;;;;5039511;28;20061;-70
2024/01/06 09:45:25;;;;;;;8.38;4.55;;;;;;;;;;5040767;28;20766;-71
2024/01/06 09:47:51;;;;;;;6.18;4.22;;;;;;;;;;5045066;28;20119;-70
2024/01/06 09:50:19;;;;;;;5.88;4.15;;;;;;;;;;5043929;28;20033;-70
2024/01/06 09:52:49;;;;;;;6.47;4.28;;;;;;;;;;5043347;28;20526;-70
2024/01/06 09:55:14;;;;;;;7.35;3.92;;;;;;;;;;5044014;28;20117;-69
2024/01/06 09:57:41;;;;;;;6.38;4.15;;;;;;;;;;5055190;28;20151;-69
2024/01/06 10:00:08;;;;;;;5.13;3.88;;;;;;;;;;5043377;28;20049;-70
2024/01/06 10:02:33;;;;;;;5.50;4.13;;;;;;;;;;5038883;28;20113;-69
2024/01/06 10:04:58;;;;;;;7.63;4.15;;;;;;;;;;5038990;28;20101;-70
2024/01/06 10:07:25;;;;;;;6.85;4.43;;;;;;;;;;5038768;28;20128;-71
2024/01/06 10:09:51;;;;;;;5.93;4.55;;;;;;;;;;5053778;28;20063;-70
2024/01/06 10:12:17;;;;;;;6.80;4.25;;;;;;;;;;5057451;28;20041;-70
2024/01/06 10:14:42;;;;;;;6.28;4.13;;;;;;;;;;5041558;28;20106;-70
2024/01/06 10:17:07;;;;;;;5.75;4.32;;;;;;;;;;5053475;28;20041;-69
2024/01/06 10:19:34;;;;;;;6.00;4.30;;;;;;;;;;5040432;28;20049;-70
2024/01/06 10:22:02;;;;;;;6.00;4.45;;;;;;;;;;5022110;28;20041;-68
2024/01/06 10:24:27;;;;;;;5.95;4.38;;;;;;;;;;5045872;28;20041;-70
2024/01/06 10:26:52;;;;;;;6.82;4.78;;;;;;;;;;5041407;28;20036;-69
2024/01/06 10:29:18;;;;;;;6.50;4.50;;;;;;;;;;5060972;28;20034;-69
2024/01/06 10:31:44;;;;;;;6.47;4.85;;;;;;;;;;5044661;28;20044;-70
2024/01/06 10:34:09;;;;;;;6.20;4.50;;;;;;;;;;5037343;28;20041;-70
2024/01/06 10:36:35;;;;;;;5.85;4.63;;;;;;;;;;5054521;28;21610;-69
2024/01/06 10:39:01;;;;;;;6.25;4.90;;;;;;;;;;5045913;28;20030;-70
2024/01/06 10:41:27;;;;;;;6.93;4.57;;;;;;;;;;5045447;28;20033;-69
2024/01/06 10:43:52;;;;;;;6.30;4.70;;;;;;;;;;5039380;28;20048;-69
2024/01/06 10:46:21;;;;;;;6.75;4.43;;;;;;;;;;5048784;28;20443;-69
2024/01/06 10:48:46;;;;;;;5.35;4.55;;;;;;;;;;5060922;28;20036;-69
2024/01/06 10:51:13;;;;;;;7.57;4.53;;;;;;;;;;5059097;28;20028;-70
2024/01/06 10:53:40;;;;;;;6.03;4.20;;;;;;;;;;5045097;28;20140;-70
2024/01/06 10:56:07;;;;;;;7.22;4.47;;;;;;;;;;5064056;28;20020;-70
2024/01/06 10:58:33;;;;;;;6.95;4.63;;;;;;;;;;5045671;28;20135;-70
2024/01/06 11:00:58;;;;;;;6.35;4.82;;;;;;;;;;5061844;28;20548;-70
2024/01/06 11:03:24;;;;;;;7.28;5.40;;;;;;;;;;5049226;28;20044;-70
2024/01/06 11:05:49;;;;;;;7.03;4.93;;;;;;;;;;5049640;28;20121;-70
2024/01/06 11:08:16;;;;;;;6.82;4.85;;;;;;;;;;5066810;28;20055;-71
2024/01/06 11:10:42;;;;;;;6.70;4.90;;;;;;;;;;5063663;28;20025;-70
2024/01/06 11:13:13;;;;;;;8.60;5.38;;;;;;;;;;5055618;28;20094;-70
2024/01/06 11:15:42;;;;;;;6.63;4.90;;;;;;;;;;5049283;28;20131;-70
2024/01/06 11:18:07;;;;;;;7.03;4.72;;;;;;;;;;5031027;28;20037;-68
2024/01/06 11:20:33;;;;;;;7.53;5.18;;;;;;;;;;5053538;28;20557;-70
2024/01/06 11:23:21;;;;;;;8.02;4.95;;;;;;;;;;5066216;28;20033;-69
2024/01/06 11:25:47;;;;;;;14.43;5.10;;;;;;;;;;5035002;28;20038;-70
2024/01/06 11:28:12;;;;;;;11.85;4.95;;;;;;;;;;5062932;28;20519;-70
2024/01/06 11:30:38;;;;;;;10.73;5.43;;;;;;;;;;5033001;28;20054;-69
2024/01/06 11:33:04;;;;;;;7.70;5.22;;;;;;;;;;5046593;28;20045;-70
2024/01/06 11:35:30;;;;;;;10.70;5.38;;;;;;;;;;5052305;28;20699;-69
2024/01/06 11:37:56;;;;;;;8.25;5.40;;;;;;;;;;5035438;28;20144;-70
2024/01/06 11:40:23;;;;;;;7.90;5.07;;;;;;;;;;5037218;28;20045;-70
2024/01/06 11:42:56;;;;;;;9.05;5.35;;;;;;;;;;5036415;28;20033;-70
2024/01/06 11:45:21;;;;;;;7.97;5.40;;;;;;;;;;5056559;28;20133;-69
2024/01/06 11:47:47;;;;;;;8.98;5.07;;;;;;;;;;5045132;28;20560;-69
2024/01/06 11:50:12;;;;;;;10.65;5.20;;;;;;;;;;5050150;28;20036;-71
2024/01/06 11:52:38;;;;;;;8.73;5.30;;;;;;;;;;5038573;28;20052;-71
2024/01/06 11:55:03;;;;;;;10.80;5.22;;;;;;;;;;5043867;28;20044;-70
2024/01/06 11:57:29;;;;;;;8.32;5.10;;;;;;;;;;5044676;28;20052;-70
2024/01/06 11:59:54;;;;;;;6.72;4.95;;;;;;;;;;5053038;28;20033;-70
2024/01/06 12:02:19;;;;;;;7.88;4.90;;;;;;;;;;5057213;28;20116;-70
2024/01/06 12:04:49;;;;;;;8.30;5.18;;;;;;;;;;5050398;28;20041;-70
2024/01/06 12:07:15;;;;;;;;;;;;;;;;;;5043393;28;20523;-70
2024/01/06 12:09:40;;;;;;;7.87;4.97;;;;;;;;;;5044552;28;20032;-69
2024/01/06 12:12:06;;;;;;;8.05;4.80;;;;;;;;;;5049259;28;20739;-69
2024/01/06 12:14:32;;;;;;;8.07;5.22;;;;;;;;;;5044765;28;20124;-70
2024/01/06 12:17:02;;;;;;;8.73;5.30;;;;;;;;;;5056204;28;20045;-70
2024/01/06 12:19:27;;;;;;;8.52;5.25;;;;;;;;;;5053553;28;20037;-70
2024/01/06 12:21:53;;;;;;;9.05;5.03;;;;;;;;;;5043607;28;20028;-71
2024/01/06 12:24:20;;;;;;;7.47;4.72;;;;;;;;;;5044002;28;20017;-71
2024/01/06 12:26:45;;;;;;;7.63;4.97;;;;;;;;;;5045168;28;20488;-72
2024/01/06 12:29:11;;;;;;;7.85;5.25;;;;;;;;;;5043826;28;20028;-70
2024/01/06 12:31:38;;;;;;;8.15;5.32;;;;;;;;;;5057203;28;20021;-70
2024/01/06 12:34:04;;;;;;;6.32;4.85;;;;;;;;;;5058402;28;20048;-70
2024/01/06 12:36:30;;;;;;;6.50;4.93;;;;;;;;;;5044492;28;20013;-71
2024/01/06 12:38:58;;;;;;;7.18;5.15;;;;;;;;;;5046919;28;20048;-70
2024/01/06 12:41:24;;;;;;;7.50;5.32;;;;;;;;;;5045387;28;20143;-70
2024/01/06 12:43:49;;;;;;;7.85;5.05;;;;;;;;;;5057089;28;20100;-70
2024/01/06 12:46:14;;;;;;;7.90;5.07;;;;;;;;;;5042320;28;20432;-70
2024/01/06 12:48:40;;;;;;;5.43;4.53;;;;;;;;;;5044427;28;20145;-70
2024/01/06 12:51:05;;;;;;;7.85;4.75;;;;;;;;;;5042803;28;20419;-70
2024/01/06 12:53:31;;;;;;;7.72;5.07;;;;;;;;;;5044745;28;20036;-69
2024/01/06 12:55:56;;;;;;;7.10;5.00;;;;;;;;;;5044475;28;20041;-70
2024/01/06 12:58:23;;;;;;;8.88;4.90;;;;;;;;;;5049962;28;20061;-70
2024/01/06 13:00:49;;;;;;;7.18;4.82;;;;;;;;;;5048295;28;20042;-70
2024/01/06 13:03:14;;;;;;;7.30;4.85;;;;;;;;;;5054229;28;20130;-70
2024/01/06 13:05:40;;;;;;;7.63;5.18;;;;;;;;;;5044628;28;20098;-71
2024/01/06 13:08:18;;;;;;;7.78;5.00;;;;;;;;;;5041839;28;20099;-70
2024/01/06 13:10:44;;;;;;;7.05;5.05;;;;;;;;;;5053438;28;20037;-70
2024/01/06 13:13:09;;;;;;;7.65;4.93;;;;;;;;;;5047140;28;20089;-69
2024/01/06 13:15:34;;;;;;;7.07;5.15;;;;;;;;;;5045526;28;20036;-70
2024/01/06 13:18:00;;;;;;;5.93;4.63;;;;;;;;;;5039583;28;20417;-70
2024/01/06 13:20:25;;;;;;;6.93;4.97;;;;;;;;;;5056975;28;20049;-70
2024/01/06 13:22:51;;;;;;;6.60;4.63;;;;;;;;;;5053999;28;20140;-70
2024/01/06 13:25:16;;;;;;;7.75;5.00;;;;;;;;;;5053875;28;20095;-70
2024/01/06 13:27:42;;;;;;;7.20;4.55;;;;;;;;;;5041285;28;20033;-69
2024/01/06 13:30:07;;;;;;;7.03;5.00;;;;;;;;;;5046386;28;20037;-69
2024/01/06 13:32:32;;;;;;;7.35;4.82;;;;;;;;;;5053030;28;20128;-69
2024/01/06 13:35:04;;;;;;;7.63;4.97;;;;;;;;;;5052823;28;20043;-70
2024/01/06 13:37:29;;;;;;;6.90;4.85;;;;;;;;;;5039346;28;20496;-70
2024/01/06 13:39:55;;;;;;;7.32;4.82;;;;;;;;;;5044828;28;20045;-70
2024/01/06 13:42:23;;;;;;;7.25;4.93;;;;;;;;;;5044324;28;20440;-69
2024/01/06 13:44:48;;;;;;;7.80;4.60;;;;;;;;;;5042629;28;20037;-68
2024/01/06 13:47:14;;;;;;;7.10;4.85;;;;;;;;;;5043901;28;20091;-69
2024/01/06 13:49:39;;;;;;;6.38;4.70;;;;;;;;;;5044779;28;20125;-69
2024/01/06 13:52:07;;;;;;;6.72;4.55;;;;;;;;;;5038693;28;20045;-70
2024/01/06 13:54:32;;;;;;;6.80;4.55;;;;;;;;;;5045007;28;20685;-69
2024/01/06 13:56:58;;;;;;;6.43;4.63;;;;;;;;;;5044623;28;20436;-70
2024/01/06 13:59:23;;;;;;;7.43;4.78;;;;;;;;;;5040751;28;20116;-69
2024/01/06 14:01:48;;;;;;;8.20;5.13;;;;;;;;;;5067710;28;20049;-70
2024/01/06 14:04:14;;;;;;;5.80;4.57;;;;;;;;;;5059576;28;20103;-70
2024/01/06 14:06:39;;;;;;;6.30;4.70;;;;;;;;;;5047467;28;20037;-70
2024/01/06 14:09:05;;;;;;;6.97;4.60;;;;;;;;;;5050740;28;20028;-70
2024/01/06 14:11:31;;;;;;;7.15;4.50;;;;;;;;;;5049329;28;20427;-70
2024/01/06 14:13:59;;;;;;;5.95;4.40;;;;;;;;;;5054276;28;20488;-70
2024/01/06 14:16:24;;;;;;;7.00;4.63;;;;;;;;;;5035811;28;20037;-70
2024/01/06 14:18:50;;;;;;;5.45;4.15;;;;;;;;;;5037710;28;20043;-71
2024/01/06 14:21:19;;;;;;;7.20;4.93;;;;;;;;;;5041376;28;20041;-70
2024/01/06 14:23:44;;;;;;;5.83;4.57;;;;;;;;;;5036076;28;20029;-70
2024/01/06 14:26:10;;;;;;;6.25;4.10;;;;;;;;;;5037821;28;20037;-71
2024/01/06 14:28:35;;;;;;;6.97;3.92;;;;;;;;;;5037856;28;20053;-70
2024/01/06 14:31:00;;;;;;;6.55;4.53;;;;;;;;;;5034530;28;20094;-69